createdAt,value
2022-12-04T00:00:04.721Z,95031.7
2022-12-04T00:01:07.212Z,95027.5
2022-12-04T00:02:09.418Z,95022.2
2022-12-04T00:03:11.642Z,95021.7
2022-12-04T00:04:14.288Z,95020.4
2022-12-04T00:05:16.767Z,95022.5
2022-12-04T00:06:19.342Z,95023.6
2022-12-04T00:07:21.560Z,95020.8
2022-12-04T00:08:23.780Z,95019.7
2022-12-04T00:09:26.271Z,95020.3
2022-12-04T00:10:28.739Z,95017.6
2022-12-04T00:11:31.242Z,95019.4
2022-12-04T00:12:33.778Z,95015.3
2022-12-04T00:13:36.285Z,95021.4
2022-12-04T00:15:43.745Z,95022.7
2022-12-04T00:16:46.538Z,95021.7
2022-12-04T00:17:48.810Z,95024.8
2022-12-04T00:18:51.104Z,95022.9
2022-12-04T00:19:54.821Z,95025.9
2022-12-04T00:20:57.955Z,95029.3
2022-12-04T00:22:00.198Z,95032.6
2022-12-04T00:23:02.683Z,95034.3
2022-12-04T00:24:04.923Z,95037.6
2022-12-04T00:25:07.132Z,95029.6
2022-12-04T00:26:09.604Z,95035.1
2022-12-04T00:27:11.814Z,95028.1
2022-12-04T00:28:14.352Z,95029.7
2022-12-04T00:29:16.599Z,95021.1
2022-12-04T00:30:19.073Z,95024.6
2022-12-04T00:31:22.062Z,95021.3
2022-12-04T00:32:24.643Z,95027.3
2022-12-04T00:33:26.856Z,95024.3
2022-12-04T00:34:29.326Z,95021
2022-12-04T00:35:31.540Z,95018.2
2022-12-04T00:36:33.735Z,95021.3
2022-12-04T00:37:36.215Z,95019.4
2022-12-04T00:38:38.409Z,95016.8
2022-12-04T00:39:40.907Z,95009.7
2022-12-04T00:40:43.384Z,95015.4
2022-12-04T00:41:45.311Z,95021.6
2022-12-04T00:42:47.527Z,95024.3
2022-12-04T00:43:50.084Z,95026.4
2022-12-04T00:44:52.301Z,95031.1
2022-12-04T00:45:55.219Z,95031.8
2022-12-04T00:46:57.550Z,95032.4
2022-12-04T00:48:00.039Z,95032.7
2022-12-04T00:49:02.574Z,95034.2
2022-12-04T00:50:05.091Z,95031.6
2022-12-04T00:51:07.569Z,95028.5
2022-12-04T00:52:10.047Z,95030.4
2022-12-04T00:53:12.582Z,95033.9
2022-12-04T00:54:15.080Z,95029.1
2022-12-04T00:55:17.581Z,95023.1
2022-12-04T00:56:20.327Z,95021
2022-12-04T00:57:22.803Z,95021
2022-12-04T00:58:24.725Z,95026
2022-12-04T00:59:27.011Z,95025.4
2022-12-04T01:00:29.505Z,95030.5
2022-12-04T01:01:32.537Z,95023.8
2022-12-04T01:02:35.573Z,95025.7
2022-12-04T01:03:37.995Z,95026.3
2022-12-04T01:04:40.495Z,95023.4
2022-12-04T01:05:42.972Z,95026.5
2022-12-04T01:06:45.474Z,95023.6
2022-12-04T01:07:47.848Z,95019.4
2022-12-04T01:08:50.127Z,95020.9
2022-12-04T01:09:52.827Z,95026.2
2022-12-04T01:10:55.773Z,95027.1
2022-12-04T01:11:58.260Z,95030.9
2022-12-04T01:13:00.769Z,95029.9
2022-12-04T01:14:02.969Z,95033
2022-12-04T01:15:05.267Z,95031.5
2022-12-04T01:16:07.792Z,95028
2022-12-04T01:17:10.149Z,95025.3
2022-12-04T01:18:12.351Z,95025.5
2022-12-04T01:19:14.843Z,95025.2
2022-12-04T01:20:17.069Z,95024.7
2022-12-04T01:21:19.262Z,95032
2022-12-04T01:22:21.746Z,95035
2022-12-04T01:23:24.217Z,95043.2
2022-12-04T01:24:26.405Z,95039.3
2022-12-04T01:25:28.626Z,95037.9
2022-12-04T01:26:30.849Z,95031.8
2022-12-04T01:27:33.449Z,95034
2022-12-04T01:28:35.973Z,95035.8
2022-12-04T01:29:38.170Z,95036.2
2022-12-04T01:30:40.758Z,95038.5
2022-12-04T01:31:43.627Z,95038.8
2022-12-04T01:32:46.242Z,95038.6
2022-12-04T01:33:48.728Z,95036.6
2022-12-04T01:34:50.938Z,95038.9
2022-12-04T01:35:53.411Z,95039.1
2022-12-04T01:36:55.629Z,95035.4
2022-12-04T01:37:58.102Z,95033.1
2022-12-04T01:39:00.325Z,95038.2
2022-12-04T01:40:02.522Z,95031.8
2022-12-04T01:41:04.468Z,95033
2022-12-04T01:42:06.687Z,95033.2
2022-12-04T01:43:08.638Z,95033
2022-12-04T01:44:11.139Z,95036.5
2022-12-04T01:45:13.622Z,95039.6
2022-12-04T01:46:16.596Z,95038.3
2022-12-04T01:47:19.229Z,95035.4
2022-12-04T01:48:21.704Z,95032.5
2022-12-04T01:49:24.006Z,95030.7
2022-12-04T01:50:26.219Z,95025
2022-12-04T01:51:28.710Z,95016.7
2022-12-04T01:52:30.350Z,95014.5
2022-12-04T01:53:32.838Z,95010.5
2022-12-04T01:54:35.311Z,95010.1
2022-12-04T01:55:37.786Z,95004.5
2022-12-04T01:56:40.269Z,94999.5
2022-12-04T01:57:42.760Z,94995.7
2022-12-04T01:58:44.966Z,94994.6
2022-12-04T01:59:47.465Z,94993.9
2022-12-04T02:01:55.343Z,95002.4
2022-12-04T02:02:58.561Z,95005.7
2022-12-04T02:04:00.998Z,95001.2
2022-12-04T02:05:02.918Z,95001.4
2022-12-04T02:06:05.391Z,95001.4
2022-12-04T02:07:07.302Z,95006.5
2022-12-04T02:08:09.970Z,95006.1
2022-12-04T02:09:12.327Z,95005.5
2022-12-04T02:10:14.796Z,95001.4
2022-12-04T02:11:17.274Z,94999.8
2022-12-04T02:12:19.754Z,95002.6
2022-12-04T02:13:22.272Z,95003.4
2022-12-04T02:14:24.740Z,94997.7
2022-12-04T02:15:26.977Z,94999.8
2022-12-04T02:16:29.701Z,95002.9
2022-12-04T02:17:32.341Z,95000.1
2022-12-04T02:18:34.847Z,94997.7
2022-12-04T02:19:37.351Z,94999
2022-12-04T02:20:39.566Z,94999.7
2022-12-04T02:21:42.065Z,94996.9
2022-12-04T02:22:44.543Z,95003.2
2022-12-04T02:23:46.750Z,95004.8
2022-12-04T02:25:53.944Z,94998.2
2022-12-04T02:26:56.428Z,94993.4
2022-12-04T02:27:58.889Z,94985.2
2022-12-04T02:29:01.380Z,94986.6
2022-12-04T02:30:03.568Z,94992.2
2022-12-04T02:31:06.137Z,94982.4
2022-12-04T02:32:08.459Z,94979
2022-12-04T02:33:11.033Z,94983.9
2022-12-04T02:34:17.698Z,94977.7
2022-12-04T02:35:20.219Z,94972.1
2022-12-04T02:36:22.412Z,94971
2022-12-04T02:37:24.891Z,94976.3
2022-12-04T02:38:27.396Z,94974.9
2022-12-04T02:39:29.887Z,94972.5
2022-12-04T02:40:32.371Z,94969.5
2022-12-04T02:41:34.582Z,94965.2
2022-12-04T02:42:37.072Z,94964.1
2022-12-04T02:43:39.276Z,94963.7
2022-12-04T02:44:41.752Z,94965
2022-12-04T02:45:44.528Z,94966.2
2022-12-04T02:46:46.536Z,94960.3
2022-12-04T02:47:49.011Z,94954.1
2022-12-04T02:48:51.581Z,94957.4
2022-12-04T02:49:55.554Z,94951.6
2022-12-04T02:50:58.370Z,94957.2
2022-12-04T02:52:00.856Z,94964.1
2022-12-04T02:53:02.759Z,94962.5
2022-12-04T02:54:05.262Z,94967.4
2022-12-04T02:56:12.458Z,94958.1
2022-12-04T02:57:14.997Z,94957.8
2022-12-04T02:58:17.509Z,94956.5
2022-12-04T02:59:19.731Z,94957.4
2022-12-04T03:00:22.221Z,94955
2022-12-04T03:01:25.285Z,94955.2
2022-12-04T03:02:28.175Z,94957.1
2022-12-04T03:03:30.769Z,94952.1
2022-12-04T03:04:33.339Z,94954.3
2022-12-04T03:05:35.827Z,94952.9
2022-12-04T03:06:38.058Z,94953.5
2022-12-04T03:07:40.569Z,94954
2022-12-04T03:08:43.200Z,94955.6
2022-12-04T03:09:45.677Z,94958.2
2022-12-04T03:10:48.141Z,94958.7
2022-12-04T03:11:50.632Z,94957.7
2022-12-04T03:12:52.558Z,94957.5
2022-12-04T03:13:54.465Z,94964.7
2022-12-04T03:14:56.927Z,94959.1
2022-12-04T03:15:59.413Z,94958.4
2022-12-04T03:17:02.176Z,94960.8
2022-12-04T03:18:04.531Z,94963.3
2022-12-04T03:19:06.736Z,94964
2022-12-04T03:20:09.298Z,94961.9
2022-12-04T03:21:11.497Z,94960.5
2022-12-04T03:22:13.999Z,94959.5
2022-12-04T03:23:16.468Z,94964.8
2022-12-04T03:24:18.967Z,94961.5
2022-12-04T03:25:21.170Z,94962.2
2022-12-04T03:26:23.375Z,94954.1
2022-12-04T03:27:25.844Z,94947.4
2022-12-04T03:28:27.774Z,94944.1
2022-12-04T03:29:30.261Z,94951.9
2022-12-04T03:30:32.657Z,94946.8
2022-12-04T03:31:34.971Z,94952.3
2022-12-04T03:32:37.460Z,94955.6
2022-12-04T03:33:39.676Z,94956.8
2022-12-04T03:34:42.155Z,94956
2022-12-04T03:35:44.705Z,94961
2022-12-04T03:36:47.192Z,94958.5
2022-12-04T03:37:49.425Z,94958.4
2022-12-04T03:38:51.933Z,94960.4
2022-12-04T03:39:56.008Z,94960.4
2022-12-04T03:40:59.027Z,94960.5
2022-12-04T03:42:00.927Z,94965.7
2022-12-04T03:43:03.148Z,94960.7
2022-12-04T03:44:04.226Z,94962.2
2022-12-04T03:45:06.719Z,94955.2
2022-12-04T03:46:09.669Z,94961.9
2022-12-04T03:47:12.136Z,94959.7
2022-12-04T03:49:19.623Z,94959.6
2022-12-04T03:50:22.107Z,94959
2022-12-04T03:51:24.674Z,94962.2
2022-12-04T03:52:27.162Z,94954.9
2022-12-04T03:53:29.681Z,94952.8
2022-12-04T03:54:32.159Z,94946
2022-12-04T03:55:34.336Z,94946.9
2022-12-04T03:56:36.825Z,94950.3
2022-12-04T03:57:39.024Z,94951.9
2022-12-04T03:58:41.500Z,94950.2
2022-12-04T03:59:43.972Z,94944.7
2022-12-04T04:00:46.460Z,94947.4
2022-12-04T04:01:49.070Z,94947.2
2022-12-04T04:02:52.013Z,94940.8
2022-12-04T04:03:54.591Z,94943.5
2022-12-04T04:04:57.112Z,94945.9
2022-12-04T04:05:59.587Z,94937.6
2022-12-04T04:07:01.851Z,94941.5
2022-12-04T04:08:04.353Z,94936.2
2022-12-04T04:09:06.974Z,94933.4
2022-12-04T04:10:09.453Z,94929.5
2022-12-04T04:11:11.936Z,94927.9
2022-12-04T04:12:13.854Z,94929.9
2022-12-04T04:13:16.250Z,94929.2
2022-12-04T04:14:18.723Z,94933.9
2022-12-04T04:15:21.211Z,94933
2022-12-04T04:16:23.715Z,94933
2022-12-04T04:17:26.407Z,94932.7
2022-12-04T04:18:28.604Z,94939.5
2022-12-04T04:19:31.103Z,94939.5
2022-12-04T04:20:33.355Z,94940.4
2022-12-04T04:21:35.840Z,94942.8
2022-12-04T04:22:38.113Z,94942.6
2022-12-04T04:23:40.590Z,94939.9
2022-12-04T04:24:43.084Z,94941.6
2022-12-04T04:25:45.554Z,94947.9
2022-12-04T04:26:47.488Z,94940.9
2022-12-04T04:27:49.682Z,94943.5
2022-12-04T04:28:52.153Z,94940.7
2022-12-04T04:29:55.833Z,94939.5
2022-12-04T04:30:59.133Z,94939.4
2022-12-04T04:32:01.732Z,94935.5
2022-12-04T04:33:03.924Z,94938.6
2022-12-04T04:34:06.414Z,94940.5
2022-12-04T04:35:08.617Z,94941.4
2022-12-04T04:36:11.133Z,94947.6
2022-12-04T04:37:13.600Z,94944.2
2022-12-04T04:38:15.877Z,94942.5
2022-12-04T04:39:18.354Z,94945.7
2022-12-04T04:40:20.877Z,94942.6
2022-12-04T04:41:23.369Z,94942.9
2022-12-04T04:42:25.280Z,94941.8
2022-12-04T04:43:27.792Z,94939.1
2022-12-04T04:44:30.271Z,94935
2022-12-04T04:45:32.475Z,94932
2022-12-04T04:46:35.054Z,94932.2
2022-12-04T04:47:37.381Z,94930.3
2022-12-04T04:48:39.572Z,94935.4
2022-12-04T04:49:42.049Z,94931.4
2022-12-04T04:50:44.536Z,94934
2022-12-04T04:51:47.032Z,94932.4
2022-12-04T04:52:49.503Z,94935.3
2022-12-04T04:53:52.261Z,94936.3
2022-12-04T04:54:54.725Z,94932.3
2022-12-04T04:55:57.245Z,94934.3
2022-12-04T04:56:59.737Z,94931.8
2022-12-04T04:58:02.214Z,94934.9
2022-12-04T04:59:04.385Z,94934.3
2022-12-04T05:00:06.599Z,94937.4
2022-12-04T05:01:09.109Z,94934.7
2022-12-04T05:02:11.808Z,94938.3
2022-12-04T05:03:14.432Z,94937.5
2022-12-04T05:04:17.076Z,94934.7
2022-12-04T05:05:19.326Z,94934.7
2022-12-04T05:06:21.426Z,94933.6
2022-12-04T05:07:23.923Z,94936.9
2022-12-04T05:08:26.404Z,94940.9
2022-12-04T05:09:28.700Z,94940.4
2022-12-04T05:10:30.887Z,94938.3
2022-12-04T05:11:32.580Z,94938.2
2022-12-04T05:12:35.089Z,94939
2022-12-04T05:13:37.567Z,94941.5
2022-12-04T05:14:40.063Z,94944.1
2022-12-04T05:15:42.328Z,94938.1
2022-12-04T05:16:44.903Z,94937.6
2022-12-04T05:17:47.098Z,94934.3
2022-12-04T05:18:49.582Z,94937.8
2022-12-04T05:19:52.205Z,94928.7
2022-12-04T05:20:55.269Z,94929.1
2022-12-04T05:21:57.732Z,94924.3
2022-12-04T05:22:59.962Z,94926.3
2022-12-04T05:24:02.435Z,94933.8
2022-12-04T05:25:04.450Z,94929.6
2022-12-04T05:26:06.921Z,94933.4
2022-12-04T05:27:09.156Z,94926.1
2022-12-04T05:28:11.623Z,94924.3
2022-12-04T05:29:13.806Z,94923
2022-12-04T05:30:16.313Z,94923.5
2022-12-04T05:31:19.181Z,94917
2022-12-04T05:32:21.838Z,94920.6
2022-12-04T05:33:24.044Z,94922.9
2022-12-04T05:34:26.515Z,94927.7
2022-12-04T05:35:29.063Z,94931.7
2022-12-04T05:36:31.549Z,94931.1
2022-12-04T05:37:32.895Z,94932.5
2022-12-04T05:38:35.425Z,94931.3
2022-12-04T05:39:37.889Z,94935.5
2022-12-04T05:40:40.465Z,94929
2022-12-04T05:41:42.947Z,94935
2022-12-04T05:42:45.497Z,94941.8
2022-12-04T05:43:47.968Z,94941.6
2022-12-04T05:44:50.449Z,94939.5
2022-12-04T05:45:52.924Z,94940.8
2022-12-04T05:46:55.629Z,94926.2
2022-12-04T05:47:58.218Z,94927.7
2022-12-04T05:49:00.695Z,94925.5
2022-12-04T05:50:02.362Z,94932.4
2022-12-04T05:51:04.575Z,94931.2
2022-12-04T05:52:06.813Z,94929.3
2022-12-04T05:53:09.292Z,94932.1
2022-12-04T05:54:11.811Z,94926
2022-12-04T05:55:14.286Z,94927.4
2022-12-04T05:56:16.561Z,94929.6
2022-12-04T05:57:19.031Z,94927.1
2022-12-04T05:58:21.531Z,94917.8
2022-12-04T05:59:24.011Z,94916.4
2022-12-04T06:00:25.928Z,94919.1
2022-12-04T06:01:28.446Z,94920
2022-12-04T06:02:31.569Z,94923
2022-12-04T06:03:34.640Z,94923.6
2022-12-04T06:04:37.331Z,94925
2022-12-04T06:05:39.551Z,94925.8
2022-12-04T06:06:42.078Z,94920
2022-12-04T06:07:44.549Z,94914.8
2022-12-04T06:08:47.183Z,94908.6
2022-12-04T06:09:49.138Z,94907.7
2022-12-04T06:10:51.336Z,94906.5
2022-12-04T06:11:53.886Z,94907.7
2022-12-04T06:12:56.362Z,94906.8
2022-12-04T06:13:58.861Z,94905.7
2022-12-04T06:15:01.105Z,94901
2022-12-04T06:16:03.846Z,94902.1
2022-12-04T06:17:06.093Z,94902.8
2022-12-04T06:18:08.309Z,94900
2022-12-04T06:19:10.777Z,94894.2
2022-12-04T06:20:13.822Z,94900.9
2022-12-04T06:21:16.447Z,94908.9
2022-12-04T06:22:18.641Z,94915.3
2022-12-04T06:23:20.880Z,94928
2022-12-04T06:24:22.808Z,94936.6
2022-12-04T06:25:25.295Z,94935.7
2022-12-04T06:26:27.242Z,94938.5
2022-12-04T06:27:30.557Z,94939.4
2022-12-04T06:28:33.169Z,94940.6
2022-12-04T06:29:35.684Z,94936.1
2022-12-04T06:30:37.873Z,94935.9
2022-12-04T06:31:40.492Z,94932.1
2022-12-04T06:32:42.743Z,94937.2
2022-12-04T06:33:44.971Z,94931.9
2022-12-04T06:34:47.436Z,94940
2022-12-04T06:35:49.931Z,94945.5
2022-12-04T06:36:52.399Z,94954.8
2022-12-04T06:37:54.897Z,94954.5
2022-12-04T06:38:57.091Z,94950.4
2022-12-04T06:40:00.645Z,94946.5
2022-12-04T06:41:02.843Z,94944
2022-12-04T06:42:05.335Z,94939.8
2022-12-04T06:43:07.336Z,94937.7
2022-12-04T06:44:09.832Z,94931
2022-12-04T06:45:12.318Z,94926.7
2022-12-04T06:46:15.161Z,94927.9
2022-12-04T06:47:17.224Z,94931
2022-12-04T06:48:19.724Z,94933.6
2022-12-04T06:49:22.005Z,94940.2
2022-12-04T06:50:24.537Z,94942.2
2022-12-04T06:51:26.728Z,94943.4
2022-12-04T06:52:29.223Z,94943
2022-12-04T06:53:31.731Z,94936.5
2022-12-04T06:54:33.933Z,94923.7
2022-12-04T06:55:36.107Z,94915.3
2022-12-04T06:56:38.625Z,94911.1
2022-12-04T06:57:41.093Z,94912.6
2022-12-04T06:58:43.378Z,94921.6
2022-12-04T06:59:45.844Z,94924.4
2022-12-04T07:00:48.079Z,94924
2022-12-04T07:01:50.669Z,94927.7
2022-12-04T07:02:53.452Z,94932.5
2022-12-04T07:03:56.130Z,94924.6
2022-12-04T07:04:58.339Z,94916.8
2022-12-04T07:06:00.807Z,94921.9
2022-12-04T07:07:03.041Z,94921.5
2022-12-04T07:08:05.814Z,94924.1
2022-12-04T07:09:08.517Z,94927.7
2022-12-04T07:10:10.994Z,94929.8
2022-12-04T07:11:13.202Z,94930.6
2022-12-04T07:12:15.420Z,94933
2022-12-04T07:13:17.899Z,94939
2022-12-04T07:14:20.451Z,94947.6
2022-12-04T07:15:22.948Z,94949.2
2022-12-04T07:16:25.473Z,94941.8
2022-12-04T07:17:28.038Z,94934.5
2022-12-04T07:18:30.517Z,94932.7
2022-12-04T07:19:33.013Z,94932.1
2022-12-04T07:20:35.494Z,94931.6
2022-12-04T07:21:37.695Z,94928.7
2022-12-04T07:22:40.175Z,94925.6
2022-12-04T07:23:42.659Z,94923.2
2022-12-04T07:24:45.137Z,94928.9
2022-12-04T07:25:47.604Z,94926.9
2022-12-04T07:26:49.794Z,94930.6
2022-12-04T07:27:52.288Z,94933.9
2022-12-04T07:28:54.816Z,94935.4
2022-12-04T07:29:58.309Z,94939.1
2022-12-04T07:31:00.602Z,94935.4
2022-12-04T07:32:03.375Z,94929
2022-12-04T07:33:05.991Z,94928.8
2022-12-04T07:34:08.179Z,94923.1
2022-12-04T07:35:10.097Z,94927.8
2022-12-04T07:36:12.824Z,94929.3
2022-12-04T07:37:15.306Z,94927.5
2022-12-04T07:38:17.781Z,94927.6
2022-12-04T07:39:20.291Z,94929.2
2022-12-04T07:40:22.216Z,94927
2022-12-04T07:41:24.170Z,94930.6
2022-12-04T07:42:26.647Z,94934.6
2022-12-04T07:43:29.147Z,94940.5
2022-12-04T07:44:31.627Z,94948
2022-12-04T07:45:34.432Z,94951.9
2022-12-04T07:46:36.889Z,94955
2022-12-04T07:47:39.395Z,94955.8
2022-12-04T07:48:41.867Z,94948.7
2022-12-04T07:49:44.363Z,94954.9
2022-12-04T07:50:46.580Z,94957.3
2022-12-04T07:51:48.792Z,94975.4
2022-12-04T07:52:51.272Z,94975.1
2022-12-04T07:53:53.772Z,94972.9
2022-12-04T07:54:55.709Z,94970.1
2022-12-04T07:55:57.916Z,94962.3
2022-12-04T07:57:00.408Z,94958.6
2022-12-04T07:58:02.898Z,94948.9
2022-12-04T07:59:05.178Z,94942.1
2022-12-04T08:00:07.657Z,94943.5
2022-12-04T08:01:10.222Z,94939.5
2022-12-04T08:02:12.941Z,94944
2022-12-04T08:03:14.615Z,94943.8
2022-12-04T08:04:17.145Z,94940.7
2022-12-04T08:05:19.531Z,94942.5
2022-12-04T08:06:21.738Z,94948.7
2022-12-04T08:07:24.218Z,94957.5
2022-12-04T08:08:26.724Z,94946.4
2022-12-04T08:09:28.927Z,94937.5
2022-12-04T08:10:31.460Z,94938.7
2022-12-04T08:11:33.933Z,94942.6
2022-12-04T08:12:36.118Z,94945.6
2022-12-04T08:13:38.296Z,94942
2022-12-04T08:14:40.799Z,94939.1
2022-12-04T08:15:43.273Z,94942.9
2022-12-04T08:17:50.796Z,94946.1
2022-12-04T08:18:53.313Z,94949.8
2022-12-04T08:19:57.092Z,94946
2022-12-04T08:21:00.248Z,94942.5
2022-12-04T08:22:02.751Z,94938.1
2022-12-04T08:23:04.963Z,94942.2
2022-12-04T08:24:07.435Z,94946.1
2022-12-04T08:25:09.625Z,94954.1
2022-12-04T08:26:12.107Z,94946.7
2022-12-04T08:27:14.314Z,94939.6
2022-12-04T08:28:16.788Z,94937.7
2022-12-04T08:29:18.703Z,94935.3
2022-12-04T08:30:21.211Z,94938.1
2022-12-04T08:31:24.207Z,94935.1
2022-12-04T08:32:26.277Z,94932
2022-12-04T08:33:28.855Z,94932.8
2022-12-04T08:34:31.350Z,94928.6
2022-12-04T08:35:33.884Z,94930.7
2022-12-04T08:36:36.091Z,94931.6
2022-12-04T08:37:38.580Z,94937.8
2022-12-04T08:38:40.783Z,94942.8
2022-12-04T08:39:42.984Z,94950.7
2022-12-04T08:40:44.945Z,94956.4
2022-12-04T08:41:53.835Z,94971.7
2022-12-04T08:42:56.041Z,94981.5
2022-12-04T08:43:58.637Z,94979
2022-12-04T08:45:01.111Z,94979.2
2022-12-04T08:46:03.940Z,94974
2022-12-04T08:47:06.580Z,94963.8
2022-12-04T08:48:09.064Z,94964
2022-12-04T08:49:17.584Z,94960
2022-12-04T08:50:17.789Z,94962.6
2022-12-04T08:51:20.029Z,94955.9
2022-12-04T08:52:22.228Z,94957.7
2022-12-04T08:53:24.771Z,94950.4
2022-12-04T08:55:34.740Z,94942.4
2022-12-04T08:56:36.942Z,94952.8
2022-12-04T08:57:39.417Z,94963.4
2022-12-04T08:58:41.355Z,94955.5
2022-12-04T08:59:43.549Z,94961.5
2022-12-04T09:00:46.041Z,94953.5
2022-12-04T09:01:48.437Z,94959.7
2022-12-04T09:02:50.836Z,94960.8
2022-12-04T09:03:53.325Z,94970.5
2022-12-04T09:04:56.358Z,94970.3
2022-12-04T09:05:58.785Z,94965.5
2022-12-04T09:07:01.283Z,94961
2022-12-04T09:08:04.179Z,94949.1
2022-12-04T09:09:06.764Z,94936.1
2022-12-04T09:10:08.683Z,94925.6
2022-12-04T09:11:11.190Z,94919.7
2022-12-04T09:12:13.708Z,94916.3
2022-12-04T09:13:15.981Z,94915.4
2022-12-04T09:14:18.240Z,94918.8
2022-12-04T09:15:20.758Z,94923.4
2022-12-04T09:16:23.842Z,94938.3
2022-12-04T09:17:26.622Z,94959.3
2022-12-04T09:18:28.829Z,94960.6
2022-12-04T09:19:30.755Z,94967.3
2022-12-04T09:20:33.311Z,94964.7
2022-12-04T09:21:35.536Z,94962.2
2022-12-04T09:23:43.031Z,94957.5
2022-12-04T09:24:45.247Z,94964.4
2022-12-04T09:25:47.192Z,94970.8
2022-12-04T09:26:49.139Z,94971.2
2022-12-04T09:27:51.607Z,94972.7
2022-12-04T09:28:53.591Z,94981.2
2022-12-04T09:29:57.870Z,94982
2022-12-04T09:31:01.052Z,94978
2022-12-04T09:32:03.292Z,94969
2022-12-04T09:33:05.527Z,94955.3
2022-12-04T09:34:07.999Z,94943
2022-12-04T09:35:10.526Z,94941.2
2022-12-04T09:36:12.778Z,94936.9
2022-12-04T09:37:15.289Z,94942.9
2022-12-04T09:38:17.793Z,94945.5
2022-12-04T09:39:20.362Z,94949.7
2022-12-04T09:40:22.576Z,94951.4
2022-12-04T09:41:24.797Z,94943.4
2022-12-04T09:42:27.025Z,94927.1
2022-12-04T09:43:29.219Z,94920.1
2022-12-04T09:44:31.691Z,94914
2022-12-04T09:45:33.915Z,94908.9
2022-12-04T09:46:38.023Z,94911.2
2022-12-04T09:47:41.349Z,94906.8
2022-12-04T09:48:43.861Z,94904.3
2022-12-04T09:49:46.066Z,94904.5
2022-12-04T09:50:48.566Z,94903.9
2022-12-04T09:51:51.114Z,94909
2022-12-04T09:52:53.625Z,94919
2022-12-04T09:53:56.120Z,94919.5
2022-12-04T09:54:58.615Z,94917.9
2022-12-04T09:56:01.149Z,94917.1
2022-12-04T09:57:03.640Z,94921.2
2022-12-04T09:58:05.852Z,94925
2022-12-04T09:59:08.058Z,94935.4
2022-12-04T10:00:10.576Z,94945.9
2022-12-04T10:01:12.816Z,94947.2
2022-12-04T10:02:15.509Z,94934.8
2022-12-04T10:03:18.649Z,94927.5
2022-12-04T10:04:21.934Z,94920.4
2022-12-04T10:05:24.614Z,94917.3
2022-12-04T10:06:27.107Z,94913.5
2022-12-04T10:07:30.174Z,94909.3
2022-12-04T10:08:32.817Z,94905.5
2022-12-04T10:09:35.317Z,94899.9
2022-12-04T10:10:37.257Z,94898.6
2022-12-04T10:11:39.457Z,94895.4
2022-12-04T10:12:41.676Z,94898.6
2022-12-04T10:13:43.589Z,94894.9
2022-12-04T10:14:45.828Z,94895.4
2022-12-04T10:15:48.089Z,94889.7
2022-12-04T10:16:50.688Z,94893.6
2022-12-04T10:17:52.648Z,94890.3
2022-12-04T10:18:54.586Z,94890.8
2022-12-04T10:19:58.467Z,94891.8
2022-12-04T10:21:01.264Z,94882.1
2022-12-04T10:22:03.753Z,94870.9
2022-12-04T10:24:11.014Z,94858.2
2022-12-04T10:25:13.523Z,94859.3
2022-12-04T10:26:16.006Z,94861.5
2022-12-04T10:27:18.237Z,94868.8
2022-12-04T10:28:20.454Z,94874
2022-12-04T10:29:22.651Z,94873.3
2022-12-04T10:30:25.327Z,94871.6
2022-12-04T10:31:28.227Z,94868.8
2022-12-04T10:32:30.320Z,94864.4
2022-12-04T10:33:32.826Z,94868.9
2022-12-04T10:34:35.317Z,94867.7
2022-12-04T10:35:40.082Z,94870.9
2022-12-04T10:36:42.272Z,94878.3
2022-12-04T10:37:44.765Z,94883.2
2022-12-04T10:38:47.280Z,94884.8
2022-12-04T10:39:49.871Z,94878.7
2022-12-04T10:40:52.368Z,94870.9
2022-12-04T10:41:54.600Z,94866.4
2022-12-04T10:42:57.113Z,94862.3
2022-12-04T10:43:59.046Z,94858
2022-12-04T10:45:01.546Z,94858.1
2022-12-04T10:46:04.176Z,94859.2
2022-12-04T10:47:07.104Z,94859.5
2022-12-04T10:48:09.438Z,94855.9
2022-12-04T10:49:11.370Z,94851.6
2022-12-04T10:50:13.852Z,94856.6
2022-12-04T10:51:16.354Z,94852.1
2022-12-04T10:52:18.841Z,94845.7
2022-12-04T10:53:21.320Z,94840.1
2022-12-04T10:54:23.541Z,94839.5
2022-12-04T10:55:26.099Z,94832.8
2022-12-04T10:56:28.123Z,94835.3
2022-12-04T10:57:30.036Z,94829.1
2022-12-04T10:58:32.513Z,94828.5
2022-12-04T10:59:34.742Z,94826.9
2022-12-04T11:00:36.948Z,94811.3
2022-12-04T11:01:39.157Z,94806.6
2022-12-04T11:02:42.402Z,94806.8
2022-12-04T11:03:45.613Z,94806.6
2022-12-04T11:04:48.223Z,94810.5
2022-12-04T11:05:50.723Z,94818
2022-12-04T11:06:52.680Z,94824.6
2022-12-04T11:07:55.537Z,94831.1
2022-12-04T11:08:57.919Z,94831.1
2022-12-04T11:10:00.521Z,94834
2022-12-04T11:11:03.171Z,94837.4
2022-12-04T11:12:05.702Z,94839
2022-12-04T11:13:08.186Z,94846.5
2022-12-04T11:14:10.392Z,94838.7
2022-12-04T11:15:12.901Z,94841.1
2022-12-04T11:16:15.666Z,94839.8
2022-12-04T11:17:17.640Z,94846.4
2022-12-04T11:18:20.136Z,94847
2022-12-04T11:19:22.349Z,94854.1
2022-12-04T11:20:24.270Z,94854.9
2022-12-04T11:21:26.750Z,94858.9
2022-12-04T11:22:28.695Z,94862.6
2022-12-04T11:23:30.348Z,94869.7
2022-12-04T11:24:32.577Z,94870.6
2022-12-04T11:25:35.065Z,94865.2
2022-12-04T11:26:37.338Z,94863.6
2022-12-04T11:27:39.867Z,94860
2022-12-04T11:28:44.385Z,94855.2
2022-12-04T11:29:46.860Z,94846.8
2022-12-04T11:30:49.378Z,94846
2022-12-04T11:31:52.004Z,94847
2022-12-04T11:32:54.680Z,94850.7
2022-12-04T11:33:57.187Z,94850.3
2022-12-04T11:34:59.680Z,94857
2022-12-04T11:36:02.167Z,94857.6
2022-12-04T11:37:04.385Z,94862.9
2022-12-04T11:38:06.304Z,94858.8
2022-12-04T11:39:08.547Z,94854.9
2022-12-04T11:40:10.805Z,94845.6
2022-12-04T11:41:13.297Z,94846.6
2022-12-04T11:42:15.856Z,94845.6
2022-12-04T11:43:18.397Z,94843.5
2022-12-04T11:44:20.611Z,94839.7
2022-12-04T11:45:22.857Z,94832.3
2022-12-04T11:46:25.329Z,94832.3
2022-12-04T11:47:27.299Z,94840.6
2022-12-04T11:48:29.799Z,94844.2
2022-12-04T11:49:32.324Z,94840.9
2022-12-04T11:50:35.547Z,94836.1
2022-12-04T11:51:37.766Z,94831
2022-12-04T11:52:40.249Z,94840
2022-12-04T11:53:42.535Z,94834.3
2022-12-04T11:54:44.498Z,94819.1
2022-12-04T11:55:46.489Z,94823.2
2022-12-04T11:56:48.690Z,94823.8
2022-12-04T11:57:51.278Z,94828.1
2022-12-04T11:58:53.228Z,94828
2022-12-04T11:59:57.068Z,94830.3
2022-12-04T12:01:00.219Z,94824.9
2022-12-04T12:02:03.419Z,94816.2
2022-12-04T12:03:06.812Z,94814.5
2022-12-04T12:04:09.577Z,94808.6
2022-12-04T12:05:11.767Z,94805.6
2022-12-04T12:06:14.253Z,94800.9
2022-12-04T12:07:15.902Z,94800.8
2022-12-04T12:08:18.116Z,94798.1
2022-12-04T12:09:20.346Z,94802.7
2022-12-04T12:10:22.561Z,94806.6
2022-12-04T12:11:25.060Z,94814.7
2022-12-04T12:12:27.578Z,94809.8
2022-12-04T12:13:30.172Z,94808
2022-12-04T12:14:32.399Z,94806.2
2022-12-04T12:15:34.594Z,94805.5
2022-12-04T12:16:37.420Z,94804
2022-12-04T12:17:39.937Z,94800.9
2022-12-04T12:18:42.140Z,94798.8
2022-12-04T12:19:44.350Z,94797.9
2022-12-04T12:20:46.290Z,94792.3
2022-12-04T12:21:48.493Z,94797.5
2022-12-04T12:22:50.691Z,94802.2
2022-12-04T12:23:53.170Z,94800.3
2022-12-04T12:24:56.588Z,94794.2
2022-12-04T12:25:59.549Z,94795.7
2022-12-04T12:27:02.089Z,94792.4
2022-12-04T12:28:04.800Z,94791.3
2022-12-04T12:29:07.552Z,94791.9
2022-12-04T12:30:10.060Z,94790.8
2022-12-04T12:31:11.719Z,94795
2022-12-04T12:32:14.016Z,94793.7
2022-12-04T12:33:16.369Z,94793.7
2022-12-04T12:34:18.857Z,94796.7
2022-12-04T12:35:21.340Z,94791.9
2022-12-04T12:36:23.832Z,94788.2
2022-12-04T12:37:26.345Z,94794.7
2022-12-04T12:38:28.996Z,94794.6
2022-12-04T12:39:31.505Z,94789.5
2022-12-04T12:40:34.030Z,94787.8
2022-12-04T12:41:36.511Z,94797.5
2022-12-04T12:42:38.620Z,94800.9
2022-12-04T12:43:41.549Z,94801.4
2022-12-04T12:44:44.250Z,94799.5
2022-12-04T12:45:46.536Z,94800.6
2022-12-04T12:46:48.266Z,94794.1
2022-12-04T12:47:50.268Z,94789.9
2022-12-04T12:49:59.186Z,94789.3
2022-12-04T12:52:06.673Z,94787
2022-12-04T12:53:09.158Z,94784.3